createdAt,value
2023-07-28T00:00:45.930Z,3.42
2023-07-28T00:02:47.856Z,2.72
2023-07-28T00:04:50.574Z,2.78
2023-07-28T00:06:52.297Z,2.33
2023-07-28T00:08:54.981Z,2.67
2023-07-28T00:10:57.768Z,2.42
2023-07-28T00:13:00.944Z,2.28
2023-07-28T00:15:05.231Z,2.92
2023-07-28T00:17:08.115Z,2.70
2023-07-28T00:19:09.768Z,2.38
2023-07-28T00:21:12.473Z,2.30
2023-07-28T00:23:15.159Z,2.55
2023-07-28T00:25:16.900Z,2.78
2023-07-28T00:27:19.648Z,2.95
2023-07-28T00:29:22.431Z,2.53
2023-07-28T00:31:26.431Z,2.78
2023-07-28T00:33:28.257Z,2.53
2023-07-28T00:35:31.133Z,2.13
2023-07-28T00:37:33.746Z,2.70
2023-07-28T00:39:38.371Z,3.08
2023-07-28T00:41:40.988Z,2.33
2023-07-28T00:43:43.632Z,2.67
2023-07-28T00:45:46.300Z,2.50
2023-07-28T00:47:50.495Z,2.50
2023-07-28T00:49:53.155Z,2.20
2023-07-28T00:51:55.398Z,2.50
2023-07-28T00:53:58.150Z,2.08
2023-07-28T00:56:00.958Z,2.40
2023-07-28T00:58:03.644Z,2.65
2023-07-28T01:00:07.093Z,2.42
2023-07-28T01:02:09.739Z,2.78
2023-07-28T01:04:13.729Z,1.90
2023-07-28T01:06:20.801Z,2.25
2023-07-28T01:08:32.326Z,2.60
2023-07-28T01:10:35.189Z,2.33
2023-07-28T01:12:37.943Z,1.65
2023-07-28T01:14:40.624Z,2.33
2023-07-28T01:16:43.349Z,1.95
2023-07-28T01:18:46.330Z,1.80
2023-07-28T01:20:56.535Z,2.42
2023-07-28T01:23:07.699Z,2.58
2023-07-28T01:25:16.509Z,2.13
2023-07-28T01:27:20.965Z,2.60
2023-07-28T01:29:24.368Z,2.33
2023-07-28T01:31:27.264Z,2.03
2023-07-28T01:33:29.985Z,3.17
2023-07-28T01:35:32.745Z,2.40
2023-07-28T01:37:35.471Z,1.70
2023-07-28T01:39:38.082Z,2.20
2023-07-28T01:41:44.520Z,1.88
2023-07-28T01:43:48.645Z,2.30
2023-07-28T01:45:50.554Z,1.95
2023-07-28T01:47:53.222Z,2.33
2023-07-28T01:49:55.889Z,2.00
2023-07-28T01:51:58.617Z,2.47
2023-07-28T01:54:01.219Z,1.88
2023-07-28T01:56:04.071Z,2.22
2023-07-28T01:58:06.673Z,2.35
2023-07-28T02:00:10.542Z,2.65
2023-07-28T02:02:13.239Z,2.00
2023-07-28T02:04:17.079Z,2.00
2023-07-28T02:06:19.888Z,1.48
2023-07-28T02:08:22.589Z,1.73
2023-07-28T02:10:24.939Z,1.92
2023-07-28T02:12:27.574Z,1.50
2023-07-28T02:14:30.219Z,2.00
2023-07-28T02:16:34.638Z,2.83
2023-07-28T02:18:37.860Z,1.83
2023-07-28T02:20:40.997Z,2.22
2023-07-28T02:22:43.882Z,2.20
2023-07-28T02:24:46.662Z,1.77
2023-07-28T02:26:49.262Z,1.85
2023-07-28T02:28:50.931Z,2.03
2023-07-28T02:30:53.650Z,2.75
2023-07-28T02:32:57.977Z,1.50
2023-07-28T02:35:00.692Z,2.42
2023-07-28T02:37:03.481Z,1.58
2023-07-28T02:39:06.170Z,1.70
2023-07-28T02:41:08.962Z,2.33
2023-07-28T02:43:11.543Z,2.30
2023-07-28T02:45:14.199Z,3.13
2023-07-28T02:47:16.853Z,1.30
2023-07-28T02:49:20.928Z,2.00
2023-07-28T02:51:23.720Z,1.70
2023-07-28T02:53:26.397Z,2.22
2023-07-28T02:55:29.257Z,2.03
2023-07-28T02:57:32.072Z,1.50
2023-07-28T02:59:34.984Z,2.05
2023-07-28T03:01:37.748Z,1.92
2023-07-28T03:03:39.400Z,1.55
2023-07-28T03:05:43.437Z,1.67
2023-07-28T03:07:48.406Z,1.45
2023-07-28T03:09:50.077Z,1.73
2023-07-28T03:11:52.807Z,1.63
2023-07-28T03:13:55.461Z,1.30
2023-07-28T03:15:58.310Z,1.73
2023-07-28T03:18:01.292Z,1.55
2023-07-28T03:20:04.048Z,1.55
2023-07-28T03:22:08.081Z,1.52
2023-07-28T03:24:10.930Z,2.20
2023-07-28T03:26:13.600Z,1.85
2023-07-28T03:28:16.260Z,1.58
2023-07-28T03:30:19.027Z,1.15
2023-07-28T03:32:22.063Z,1.20
2023-07-28T03:34:27.796Z,1.38
2023-07-28T03:36:30.480Z,1.67
2023-07-28T03:38:34.460Z,1.88
2023-07-28T03:40:37.206Z,3.05
2023-07-28T03:42:39.956Z,1.52
2023-07-28T03:44:42.832Z,1.60
2023-07-28T03:46:45.706Z,1.75
2023-07-28T03:48:48.481Z,1.88
2023-07-28T03:50:51.188Z,1.58
2023-07-28T03:52:53.793Z,1.35
2023-07-28T03:54:57.737Z,1.17
2023-07-28T03:57:00.522Z,2.47
2023-07-28T03:59:03.163Z,1.65
2023-07-28T04:01:08.601Z,1.27
2023-07-28T04:03:11.319Z,1.40
2023-07-28T04:05:13.265Z,1.50
2023-07-28T04:07:16.166Z,1.55
2023-07-28T04:09:19.165Z,2.15
2023-07-28T04:11:23.098Z,1.35
2023-07-28T04:13:25.857Z,1.20
2023-07-28T04:15:28.489Z,1.40
2023-07-28T04:17:31.291Z,1.35
2023-07-28T04:19:34.650Z,1.52
2023-07-28T04:21:41.849Z,1.75
2023-07-28T04:23:44.888Z,1.60
2023-07-28T04:25:47.473Z,1.63
2023-07-28T04:27:51.503Z,1.70
2023-07-28T04:29:54.124Z,1.80
2023-07-28T04:31:56.781Z,1.40
2023-07-28T04:33:59.434Z,1.67
2023-07-28T04:36:03.296Z,1.20
2023-07-28T04:38:06.356Z,1.38
2023-07-28T04:40:10.104Z,1.35
2023-07-28T04:42:12.817Z,1.67
2023-07-28T04:44:17.270Z,1.77
2023-07-28T04:46:19.908Z,1.20
2023-07-28T04:48:22.577Z,1.13
2023-07-28T04:50:25.233Z,1.60
2023-07-28T04:52:27.019Z,1.95
2023-07-28T04:54:29.813Z,1.20
2023-07-28T04:56:32.808Z,1.45
2023-07-28T04:58:35.771Z,1.70
2023-07-28T05:00:40.015Z,1.20
2023-07-28T05:02:42.728Z,2.75
2023-07-28T05:04:45.585Z,1.20
2023-07-28T05:06:48.265Z,2.05
2023-07-28T05:08:50.938Z,1.77
2023-07-28T05:10:53.560Z,1.42
2023-07-28T05:12:57.067Z,1.35
2023-07-28T05:14:59.764Z,1.38
2023-07-28T05:17:03.931Z,1.10
2023-07-28T05:19:07.046Z,1.15
2023-07-28T05:21:09.643Z,1.02
2023-07-28T05:23:12.326Z,2.17
2023-07-28T05:25:15.164Z,1.17
2023-07-28T05:27:18.112Z,1.33
2023-07-28T05:29:20.882Z,1.63
2023-07-28T05:31:23.542Z,0.95
2023-07-28T05:33:27.635Z,1.30
2023-07-28T05:35:30.288Z,0.82
2023-07-28T05:37:32.891Z,1.15
2023-07-28T05:39:35.638Z,0.90
2023-07-28T05:41:38.516Z,1.20
2023-07-28T05:43:41.182Z,0.90
2023-07-28T05:45:47.851Z,0.82
2023-07-28T05:47:50.580Z,0.88
2023-07-28T05:49:55.741Z,1.17
2023-07-28T05:51:58.406Z,0.82
2023-07-28T05:54:02.007Z,1.17
2023-07-28T05:56:04.725Z,1.10
2023-07-28T05:58:08.367Z,1.08
2023-07-28T06:00:12.104Z,0.75
2023-07-28T06:02:14.811Z,0.70
2023-07-28T06:04:17.538Z,1.52
2023-07-28T06:06:21.499Z,1.10
2023-07-28T06:08:24.159Z,0.80
2023-07-28T06:10:26.917Z,1.08
2023-07-28T06:12:29.573Z,1.45
2023-07-28T06:14:32.538Z,1.65
2023-07-28T06:16:35.386Z,1.52
2023-07-28T06:18:38.091Z,0.70
2023-07-28T06:20:45.090Z,1.00
2023-07-28T06:22:49.108Z,0.88
2023-07-28T06:24:51.306Z,0.75
2023-07-28T06:26:53.960Z,0.80
2023-07-28T06:28:56.765Z,0.73
2023-07-28T06:30:59.815Z,1.00
2023-07-28T06:33:04.309Z,0.82
2023-07-28T06:35:08.170Z,1.27
2023-07-28T06:37:10.930Z,0.75
2023-07-28T06:39:15.073Z,0.68
2023-07-28T06:41:17.873Z,1.00
2023-07-28T06:43:20.960Z,0.85
2023-07-28T06:45:23.668Z,2.05
2023-07-28T06:47:26.385Z,2.10
2023-07-28T06:49:29.145Z,2.65
2023-07-28T06:51:31.888Z,2.08
2023-07-28T06:53:36.009Z,1.33
2023-07-28T06:55:40.371Z,2.17
2023-07-28T06:57:43.014Z,1.00
2023-07-28T06:59:45.740Z,0.80
2023-07-28T07:01:48.420Z,2.08
2023-07-28T07:03:53.538Z,1.40
2023-07-28T07:05:56.169Z,0.60
2023-07-28T07:07:59.054Z,1.00
2023-07-28T07:10:01.731Z,1.55
2023-07-28T07:12:06.787Z,0.98
2023-07-28T07:14:09.879Z,2.05
2023-07-28T07:16:23.649Z,2.33
2023-07-28T07:18:27.386Z,1.35
2023-07-28T07:20:30.036Z,1.92
2023-07-28T07:22:32.673Z,2.65
2023-07-28T07:24:35.310Z,0.80
2023-07-28T07:26:37.941Z,0.82
2023-07-28T07:28:41.979Z,1.30
2023-07-28T07:30:44.844Z,1.42
2023-07-28T07:32:47.560Z,1.50
2023-07-28T07:34:50.209Z,2.10
2023-07-28T07:36:53.154Z,2.28
2023-07-28T07:38:55.964Z,1.00
2023-07-28T07:40:58.628Z,1.17
2023-07-28T07:43:01.599Z,1.40
2023-07-28T07:45:07.429Z,1.27
2023-07-28T07:47:16.774Z,1.13
2023-07-28T07:49:19.391Z,3.08
2023-07-28T07:51:22.093Z,1.27
2023-07-28T07:53:23.930Z,1.70
2023-07-28T07:55:26.627Z,0.90
2023-07-28T07:57:29.246Z,1.52
2023-07-28T07:59:36.053Z,3.28
2023-07-28T08:01:40.695Z,2.20
2023-07-28T08:03:43.398Z,1.35
2023-07-28T08:05:46.117Z,1.77
2023-07-28T08:07:49.452Z,1.98
2023-07-28T08:09:52.175Z,1.55
2023-07-28T08:11:55.749Z,0.98
2023-07-28T08:13:58.537Z,1.70
2023-07-28T08:16:01.439Z,1.83
2023-07-28T08:18:05.626Z,1.45
2023-07-28T08:20:09.002Z,1.92
2023-07-28T08:22:13.357Z,1.45
2023-07-28T08:24:16.897Z,1.48
2023-07-28T08:26:19.620Z,1.50
2023-07-28T08:28:22.270Z,1.92
2023-07-28T08:30:25.116Z,1.55
2023-07-28T08:32:29.107Z,1.80
2023-07-28T08:34:33.335Z,1.85
2023-07-28T08:36:36.084Z,2.15
2023-07-28T08:38:39.780Z,1.63
2023-07-28T08:40:42.552Z,0.82
2023-07-28T08:42:46.145Z,1.45
2023-07-28T08:44:48.801Z,1.48
2023-07-28T08:46:51.519Z,1.42
2023-07-28T08:48:54.404Z,1.17
2023-07-28T08:50:57.736Z,1.20
2023-07-28T08:53:01.123Z,1.42
2023-07-28T08:55:03.948Z,2.15
2023-07-28T08:57:06.976Z,1.50
2023-07-28T09:03:28.349Z,1.80
2023-07-28T09:05:35.499Z,1.00
2023-07-28T09:07:39.573Z,2.08
2023-07-28T09:09:42.585Z,1.90
2023-07-28T09:11:49.051Z,1.50
2023-07-28T09:13:53.436Z,2.20
2023-07-28T09:20:14.559Z,1.85
2023-07-28T09:24:32.500Z,1.73
2023-07-28T09:26:41.185Z,1.30
2023-07-28T09:28:44.097Z,2.78
2023-07-28T09:30:48.620Z,1.17
2023-07-28T09:32:52.329Z,1.90
2023-07-28T09:35:08.145Z,1.40
2023-07-28T09:37:11.747Z,1.92
2023-07-28T09:39:14.661Z,1.25
2023-07-28T09:41:19.336Z,1.35
2023-07-28T09:43:21.028Z,2.58
2023-07-28T09:45:35.565Z,1.85
2023-07-28T09:47:40.338Z,1.83
2023-07-28T09:49:44.511Z,2.25
2023-07-28T09:51:49.293Z,2.50
2023-07-28T09:53:56.027Z,2.53
2023-07-28T09:55:59.524Z,1.85
2023-07-28T09:58:07.053Z,2.40
2023-07-28T10:00:11.186Z,1.77
2023-07-28T10:02:14.182Z,1.20
2023-07-28T10:04:17.278Z,1.42
2023-07-28T10:06:20.885Z,1.70
2023-07-28T10:08:24.381Z,1.95
2023-07-28T10:10:29.446Z,2.63
2023-07-28T10:12:32.065Z,2.65
2023-07-28T10:14:38.731Z,1.48
2023-07-28T10:16:42.044Z,2.17
2023-07-28T10:18:53.531Z,2.90
2023-07-28T10:20:55.232Z,2.45
2023-07-28T10:23:04.345Z,3.45
2023-07-28T10:25:09.587Z,3.42
2023-07-28T10:27:12.234Z,3.38
2023-07-28T10:29:16.413Z,7.40
2023-07-28T10:31:31.971Z,3.15
2023-07-28T10:33:37.268Z,3.80
2023-07-28T10:35:49.432Z,2.70
2023-07-28T10:37:52.487Z,2.78
2023-07-28T10:40:10.057Z,3.08
2023-07-28T10:42:12.664Z,5.13
2023-07-28T10:44:15.334Z,3.75
2023-07-28T10:46:18.724Z,4.82
2023-07-28T10:48:23.780Z,2.90
2023-07-28T10:50:26.532Z,3.47
2023-07-28T10:52:29.318Z,4.30
2023-07-28T10:54:33.198Z,3.70
2023-07-28T10:56:36.148Z,1.90
2023-07-28T10:58:39.118Z,2.85
2023-07-28T11:00:40.873Z,2.15
2023-07-28T11:02:45.023Z,2.30
2023-07-28T11:04:50.139Z,1.27
2023-07-28T11:06:52.981Z,2.65
2023-07-28T11:08:56.532Z,1.95
2023-07-28T11:10:59.288Z,3.30
2023-07-28T11:13:06.797Z,2.22
2023-07-28T11:15:19.181Z,3.50
2023-07-28T11:17:22.830Z,3.25
2023-07-28T11:19:27.307Z,4.15
2023-07-28T11:21:31.560Z,3.35
2023-07-28T11:23:34.370Z,3.08
2023-07-28T11:25:37.699Z,2.78
2023-07-28T11:27:40.008Z,2.53
2023-07-28T11:29:42.646Z,3.25
2023-07-28T11:31:45.324Z,3.22
2023-07-28T11:33:47.978Z,2.90
2023-07-28T11:35:50.709Z,2.92
2023-07-28T11:37:54.334Z,2.60
2023-07-28T11:39:58.087Z,3.13
2023-07-28T11:42:00.814Z,3.03
2023-07-28T11:44:04.033Z,3.35
2023-07-28T11:46:27.514Z,3.70
2023-07-28T11:48:32.108Z,3.92
2023-07-28T11:50:37.621Z,3.75
2023-07-28T11:52:40.280Z,5.22
2023-07-28T11:54:45.732Z,3.67
2023-07-28T11:56:48.820Z,3.22
2023-07-28T11:58:52.615Z,3.15
2023-07-28T12:00:55.248Z,3.90
2023-07-28T12:03:05.101Z,3.50
2023-07-28T12:05:15.336Z,2.75
2023-07-28T12:07:19.880Z,2.28
2023-07-28T12:09:23.155Z,2.15
2023-07-28T12:11:56.560Z,3.13
2023-07-28T12:20:11.612Z,2.75
2023-07-28T12:22:14.679Z,6.63
2023-07-28T12:24:17.338Z,2.90
2023-07-28T12:26:20.884Z,2.17
2023-07-28T12:28:24.921Z,2.65
2023-07-28T12:30:26.930Z,4.53
2023-07-28T12:32:35.944Z,5.07
2023-07-28T12:38:55.004Z,1.40
2023-07-28T12:43:05.750Z,2.55
2023-07-28T12:47:19.959Z,2.25
2023-07-28T12:49:22.807Z,2.83
2023-07-28T12:53:32.017Z,2.75
2023-07-28T12:55:36.018Z,3.15
2023-07-28T12:57:37.721Z,4.97
2023-07-28T13:01:47.668Z,5.53
2023-07-28T13:03:50.530Z,3.83
2023-07-28T13:05:53.247Z,6.45
2023-07-28T13:10:01.445Z,2.38
2023-07-28T13:20:29.246Z,3.63
2023-07-28T13:22:31.918Z,1.10
2023-07-28T13:24:34.565Z,2.10
2023-07-28T13:32:59.574Z,1.42
2023-07-28T13:35:03.758Z,0.82
2023-07-28T13:37:06.576Z,6.95
2023-07-28T13:39:09.264Z,3.10
2023-07-28T13:45:27.572Z,6.18
2023-07-28T13:47:30.435Z,2.67
2023-07-28T13:49:51.603Z,1.10
2023-07-28T13:56:21.614Z,6.40
2023-07-28T13:58:25.461Z,3.85
2023-07-28T14:00:28.134Z,5.72
2023-07-28T14:02:31.098Z,4.70
2023-07-28T14:04:33.734Z,4.38
2023-07-28T14:06:36.349Z,5.03
2023-07-28T14:08:40.320Z,3.20
2023-07-28T14:10:45.693Z,6.30
2023-07-28T14:12:48.353Z,10.82
2023-07-28T14:14:51.574Z,4.80
2023-07-28T14:16:54.341Z,4.97
2023-07-28T14:18:57.062Z,5.10
2023-07-28T14:20:59.860Z,14.68
2023-07-28T14:23:03.042Z,7.05
2023-07-28T14:25:07.439Z,7.10
2023-07-28T14:27:10.259Z,4.25
2023-07-28T14:29:12.888Z,4.13
2023-07-28T14:31:15.577Z,1.95
2023-07-28T14:33:17.627Z,4.32
2023-07-28T14:35:20.367Z,7.35
2023-07-28T14:37:23.085Z,4.20
2023-07-28T14:39:26.185Z,2.00
2023-07-28T14:41:30.245Z,2.75
2023-07-28T14:43:32.903Z,5.43
2023-07-28T14:45:35.750Z,5.75
2023-07-28T14:47:38.554Z,4.78
2023-07-28T14:49:41.245Z,2.90
2023-07-28T14:51:44.103Z,1.58
2023-07-28T14:53:48.093Z,3.88
2023-07-28T14:55:50.853Z,2.70
2023-07-28T14:57:54.891Z,3.17
2023-07-28T14:59:57.526Z,3.67
2023-07-28T15:02:00.130Z,4.10
2023-07-28T15:04:03.941Z,4.22
2023-07-28T15:06:07.012Z,3.92
2023-07-28T15:08:08.953Z,2.40
2023-07-28T15:10:12.137Z,5.15
2023-07-28T15:12:14.741Z,5.43
2023-07-28T15:14:18.847Z,7.47
2023-07-28T15:16:20.903Z,3.30
2023-07-28T15:18:23.732Z,5.25
2023-07-28T15:20:26.330Z,3.90
2023-07-28T15:22:28.970Z,2.83
2023-07-28T15:24:31.613Z,4.30
2023-07-28T15:26:36.839Z,6.93
2023-07-28T15:28:39.590Z,3.00
2023-07-28T15:30:46.637Z,5.38
2023-07-28T15:32:49.894Z,6.00
2023-07-28T15:34:52.585Z,4.63
2023-07-28T15:36:55.297Z,3.28
2023-07-28T15:38:57.969Z,4.15
2023-07-28T15:41:00.603Z,5.55
2023-07-28T15:43:03.262Z,5.22
2023-07-28T15:45:06.580Z,5.35
2023-07-28T15:47:10.609Z,7.70
2023-07-28T15:49:12.941Z,7.35
2023-07-28T15:51:15.697Z,4.88
2023-07-28T15:53:18.374Z,6.40
2023-07-28T15:55:21.040Z,5.57
2023-07-28T15:57:23.820Z,5.15
2023-07-28T15:59:26.609Z,5.00
2023-07-28T16:01:29.313Z,2.72
2023-07-28T16:03:33.407Z,2.88
2023-07-28T16:05:38.927Z,4.57
2023-07-28T16:07:41.590Z,3.35
2023-07-28T16:09:45.136Z,5.15
2023-07-28T16:11:48.244Z,3.35
2023-07-28T16:13:51.113Z,2.90
2023-07-28T16:15:53.851Z,3.97
2023-07-28T16:17:56.628Z,2.35
2023-07-28T16:20:00.705Z,3.45
2023-07-28T16:22:03.609Z,3.08
2023-07-28T16:24:06.639Z,4.82
2023-07-28T16:26:10.835Z,2.95
2023-07-28T16:28:13.439Z,4.68
2023-07-28T16:30:17.436Z,7.53
2023-07-28T16:32:20.690Z,5.82
2023-07-28T16:34:23.419Z,5.03
2023-07-28T16:36:27.638Z,6.07
2023-07-28T16:38:30.336Z,4.05
2023-07-28T16:40:33.062Z,5.90
2023-07-28T16:42:35.798Z,5.20
2023-07-28T16:44:39.915Z,5.03
2023-07-28T16:46:42.809Z,3.92
2023-07-28T16:48:45.540Z,2.95
2023-07-28T16:50:48.337Z,4.00
2023-07-28T16:52:52.474Z,3.67
2023-07-28T16:54:55.204Z,3.47
2023-07-28T16:56:58.463Z,3.90
2023-07-28T16:59:01.100Z,4.78
2023-07-28T17:01:02.827Z,3.95
2023-07-28T17:03:05.686Z,2.92
2023-07-28T17:05:08.899Z,4.78
2023-07-28T17:07:11.846Z,3.50
2023-07-28T17:09:15.827Z,5.72
2023-07-28T17:11:17.561Z,3.72
2023-07-28T17:13:21.126Z,5.13
2023-07-28T17:15:38.420Z,2.38
2023-07-28T17:17:43.350Z,3.72
2023-07-28T17:19:46.113Z,3.72
2023-07-28T17:21:48.907Z,3.28
2023-07-28T17:23:51.558Z,5.78
2023-07-28T17:25:55.573Z,2.97
2023-07-28T17:27:58.438Z,3.97
2023-07-28T17:30:01.175Z,2.80
2023-07-28T17:32:03.769Z,2.63
2023-07-28T17:34:06.767Z,2.92
2023-07-28T17:36:09.456Z,4.03
2023-07-28T17:38:12.374Z,3.55
2023-07-28T17:40:15.127Z,2.75
2023-07-28T17:42:20.218Z,3.72
2023-07-28T17:44:22.976Z,2.38
2023-07-28T17:46:25.741Z,2.80
2023-07-28T17:48:28.532Z,3.92
2023-07-28T17:50:31.313Z,3.67
2023-07-28T17:52:34.047Z,3.33
2023-07-28T17:54:36.745Z,2.55
2023-07-28T17:56:39.634Z,3.92
2023-07-28T17:58:43.653Z,5.55
2023-07-28T18:00:46.290Z,3.70
2023-07-28T18:02:49.080Z,4.15
2023-07-28T18:04:51.976Z,2.75
2023-07-28T18:06:53.696Z,4.82
2023-07-28T18:08:56.332Z,4.65
2023-07-28T18:10:59.140Z,4.28
2023-07-28T18:13:01.872Z,2.80
2023-07-28T18:15:06.775Z,3.58
2023-07-28T18:17:09.418Z,3.75
2023-07-28T18:19:12.104Z,4.15
2023-07-28T18:21:14.837Z,2.40
2023-07-28T18:23:17.566Z,3.90
2023-07-28T18:25:20.270Z,3.35
2023-07-28T18:27:22.908Z,3.08
2023-07-28T18:29:25.568Z,3.42
2023-07-28T18:31:29.598Z,3.45
2023-07-28T18:33:32.347Z,4.00
2023-07-28T18:35:35.104Z,6.00
2023-07-28T18:37:37.935Z,2.40
2023-07-28T18:39:40.559Z,3.67
2023-07-28T18:41:42.315Z,3.35
2023-07-28T18:43:45.165Z,5.20
2023-07-28T18:45:47.884Z,3.05
2023-07-28T18:47:52.177Z,3.80
2023-07-28T18:49:53.836Z,5.57
2023-07-28T18:51:56.467Z,3.55
2023-07-28T18:53:59.184Z,3.83
2023-07-28T18:56:01.895Z,4.85
2023-07-28T18:58:04.930Z,5.50
2023-07-28T19:00:09.131Z,6.18
2023-07-28T19:02:11.879Z,4.05
2023-07-28T19:04:16.238Z,6.45
2023-07-28T19:06:21.042Z,4.75
2023-07-28T19:08:23.864Z,6.07
2023-07-28T19:10:27.701Z,6.85
2023-07-28T19:12:30.341Z,5.40
2023-07-28T19:14:32.958Z,6.13
2023-07-28T19:16:36.061Z,4.22
2023-07-28T19:18:38.729Z,7.05
2023-07-28T19:20:42.856Z,6.18
2023-07-28T19:22:45.587Z,4.28
2023-07-28T19:24:48.282Z,8.15
2023-07-28T19:26:50.995Z,5.95
2023-07-28T19:28:52.832Z,6.20
2023-07-28T19:31:00.873Z,6.35
2023-07-28T19:33:03.953Z,6.22
2023-07-28T19:35:07.313Z,5.95
2023-07-28T19:37:11.376Z,6.05
2023-07-28T19:39:14.028Z,9.82
2023-07-28T19:41:18.324Z,8.38
2023-07-28T19:43:21.042Z,7.43
2023-07-28T19:45:23.811Z,7.82
2023-07-28T19:47:26.508Z,7.95
2023-07-28T19:49:30.074Z,7.57
2023-07-28T19:51:32.874Z,10.32
2023-07-28T19:53:37.160Z,8.75
2023-07-28T19:55:39.874Z,8.20
2023-07-28T19:57:43.525Z,8.02
2023-07-28T19:59:45.183Z,6.57
2023-07-28T20:01:48.013Z,5.82
2023-07-28T20:03:51.043Z,8.65
2023-07-28T20:05:53.993Z,8.50
2023-07-28T20:07:56.582Z,11.25
2023-07-28T20:10:02.272Z,8.35
2023-07-28T20:12:07.078Z,10.25
2023-07-28T20:14:09.848Z,5.80
2023-07-28T20:16:12.560Z,9.70
2023-07-28T20:18:15.214Z,8.02
2023-07-28T20:20:17.988Z,7.65
2023-07-28T20:22:20.721Z,8.60
2023-07-28T20:24:23.461Z,8.45
2023-07-28T20:26:27.469Z,8.75
2023-07-28T20:28:30.224Z,7.38
2023-07-28T20:30:32.951Z,6.43
2023-07-28T20:32:34.614Z,6.13
2023-07-28T20:34:37.267Z,6.80
2023-07-28T20:36:39.934Z,6.55
2023-07-28T20:38:41.695Z,6.57
2023-07-28T20:40:44.388Z,6.70
2023-07-28T20:42:47.566Z,6.18
2023-07-28T20:44:50.200Z,7.90
2023-07-28T20:46:52.877Z,7.45
2023-07-28T20:48:55.718Z,5.50
2023-07-28T20:50:58.282Z,6.10
2023-07-28T20:52:59.933Z,6.25
2023-07-28T20:55:02.666Z,6.45
2023-07-28T20:57:05.701Z,4.68
2023-07-28T20:59:09.868Z,5.38
2023-07-28T21:01:12.579Z,5.43
2023-07-28T21:03:15.344Z,4.82
2023-07-28T21:05:18.236Z,4.85
2023-07-28T21:07:20.887Z,7.07
2023-07-28T21:09:23.567Z,4.20
2023-07-28T21:11:26.202Z,4.32
2023-07-28T21:13:29.050Z,4.75
2023-07-28T21:15:33.142Z,5.00
2023-07-28T21:17:35.969Z,4.43
2023-07-28T21:19:38.604Z,4.97
2023-07-28T21:21:41.295Z,4.03
2023-07-28T21:23:45.162Z,5.57
2023-07-28T21:25:47.824Z,5.20
2023-07-28T21:27:50.537Z,4.05
2023-07-28T21:29:55.900Z,4.10
2023-07-28T21:32:00.560Z,4.15
2023-07-28T21:34:03.293Z,4.10
2023-07-28T21:36:06.376Z,4.07
2023-07-28T21:38:09.394Z,3.95
2023-07-28T21:40:12.139Z,3.80
2023-07-28T21:42:14.053Z,4.22
2023-07-28T21:44:16.662Z,4.53
2023-07-28T21:46:21.260Z,5.00
2023-07-28T21:48:25.384Z,4.22
2023-07-28T21:50:28.131Z,3.63
2023-07-28T21:52:30.737Z,3.75
2023-07-28T21:54:32.761Z,3.58
2023-07-28T21:56:36.207Z,3.88
2023-07-28T21:58:38.993Z,4.07
2023-07-28T22:00:43.586Z,3.33
2023-07-28T22:02:46.792Z,2.60
2023-07-28T22:04:50.863Z,3.30
2023-07-28T22:06:53.572Z,4.05
2023-07-28T22:08:56.265Z,3.05
2023-07-28T22:10:58.937Z,5.13
2023-07-28T22:13:01.692Z,2.78
2023-07-28T22:15:03.573Z,2.95
2023-07-28T22:17:06.364Z,3.45
2023-07-28T22:19:09.108Z,3.95
2023-07-28T22:21:13.124Z,3.85
2023-07-28T22:23:15.736Z,5.22
2023-07-28T22:25:18.375Z,3.15
2023-07-28T22:27:21.720Z,3.05
2023-07-28T22:29:24.394Z,3.97
2023-07-28T22:31:27.127Z,3.65
2023-07-28T22:33:29.784Z,3.03
2023-07-28T22:35:32.571Z,2.65
2023-07-28T22:37:36.773Z,3.25
2023-07-28T22:39:39.408Z,3.08
2023-07-28T22:41:42.284Z,4.65
2023-07-28T22:43:45.101Z,2.15
2023-07-28T22:45:47.816Z,4.00
2023-07-28T22:47:50.545Z,2.97
2023-07-28T22:49:53.222Z,3.00
2023-07-28T22:51:55.991Z,3.10
2023-07-28T22:53:59.984Z,3.17
2023-07-28T22:56:02.782Z,2.60
2023-07-28T22:58:05.389Z,3.42
2023-07-28T23:00:11.372Z,2.63
2023-07-28T23:02:14.876Z,3.92
2023-07-28T23:04:16.491Z,2.92
2023-07-28T23:06:19.179Z,3.28
2023-07-28T23:08:21.792Z,3.55
2023-07-28T23:10:25.819Z,3.45
2023-07-28T23:12:28.478Z,3.00
2023-07-28T23:14:31.079Z,2.75
2023-07-28T23:16:34.177Z,3.30
2023-07-28T23:18:37.165Z,3.67
2023-07-28T23:20:39.742Z,3.05
2023-07-28T23:22:42.362Z,2.50
2023-07-28T23:24:44.997Z,3.10
2023-07-28T23:26:49.517Z,3.70
2023-07-28T23:28:52.138Z,2.30
2023-07-28T23:30:54.829Z,3.42
2023-07-28T23:32:57.667Z,2.45
2023-07-28T23:35:00.340Z,3.22
2023-07-28T23:37:03.444Z,2.60
2023-07-28T23:39:08.319Z,2.85
2023-07-28T23:41:11.280Z,3.03
2023-07-28T23:43:15.280Z,3.25
2023-07-28T23:45:17.058Z,3.03
2023-07-28T23:47:19.658Z,2.35
2023-07-28T23:49:22.420Z,3.50
2023-07-28T23:51:24.341Z,2.10
2023-07-28T23:53:27.107Z,2.85
2023-07-28T23:55:29.741Z,2.38
2023-07-28T23:57:32.370Z,3.42
2023-07-28T23:59:36.391Z,2.50
